Regionale Übersicht

METAR und TAF

Dienstag, 21. Mai 2019 - 04:25 Uhr

Beobachtete horizontale meteorologische Sicht an ausgewählten Flughäfen. Die vollständigen METARs und Flugwettervorhersagen (TAFs) sind verfügbar, wenn Sie auf das entsprechende Symbol mit der ICAO-Flughafenkennung klicken.

  • Luxemburg (ELLX)

    Taf: TAF ELLX 202300Z 2100/2206 32010KT 6000 BKN010 PROB40 2100/2107 3500 BR -DZ BKN005 PROB30 2102/2105 0500 FG BKN003 BECMG 2108/2110 SCT015 TEMPO 2108/2120 32015G25KT PROB40 2200/2206 3000 BR BKN008=

    Metar: METAR ELLX 210150Z AUTO 29008KT 260V340 9999 BKN008/// OVC009/// 11/09 Q1010 NOSIG=

  • Spangdahlem (ETAD)

    Taf: TAF ETAD 202000Z 2020/2202 30009KT 9999 SCT007 OVC010 QNH2975INS BECMG 2108/2109 34012G18KT 9999 BKN015 OVC020 QNH2985INS BECMG 2202/2203 33006KT 6000 BR SCT007 BKN010 QNH3003INS TX15/2115Z TN11/2104Z LAST NO AMDS AFT 2020 NEXT 2104=

    Metar: nil

  • Metz/Nancy (LFJL)

    Taf: TAF LFJL 202300Z 2100/2124 29012KT 9999 SCT015 OVC020 TEMPO 2100/2110 OVC012 PROB40 TEMPO 2104/2109 OVC005 PROB30 TEMPO 2106/2109 -RA TEMPO 2112/2117 FEW030TCU BKN040 PROB30 TEMPO 2114/2117 FEW040CB BECMG 2118/2121 35005KT CAVOK=

    Metar: nil

  • Saarbrücken/Intl (EDDR)

    Taf: TAF EDDR 202300Z 2100/2124 28010KT 9999 BKN015 BECMG 2100/2103 BKN012 TEMPO 2100/2109 4000 BR BKN006 BECMG 2109/2111 SCT015 BECMG 2117/2120 29005KT=

    Metar: nil

  • Hahn (EDFH)

    Taf: TAF EDFH 202300Z 2100/2124 30010KT 7000 BKN009 TEMPO 2100/2108 2500 BR BKN004 PROB30 TEMPO 2100/2107 0500 FG BKN001 PROB30 TEMPO 2106/2114 30015G25KT TEMPO 2108/2114 2500 RA BKN004 BECMG 2114/2116 BKN015=

    Metar: nil

  • Ramstein (ETAR)

    Taf: TAF AMD ETAR 210135Z 2101/2124 25009KT 9999 OVC019 620709 QNH2978INS BECMG 2103/2104 32010G20KT 9999 OVC020 QNH2980INS BECMG 2110/2111 30012G24KT 9000 -SHRA BKN020 QNH2987INS BECMG 2120/2121 30006KT 8000 BR BKN020 QNH2988INS TX21/2117Z TN09/2104Z=

    Metar: nil

  • Nancy/Ochey (LFSO)

    Taf: TAF LFSO 202000Z NIL=

    Metar: nil

  • Liège Bierset (EBLG)

    Taf: TAF EBLG 202300Z 2100/2206 31008KT 4500 BR BKN008 TEMPO 2100/2109 2000 -DZ BKN004 PROB30 TEMPO 2100/2106 0500 FG BKN001 BECMG 2108/2110 7000 NSW FEW015 SCT030=

    Metar: nil

  • Saint-Dizier (LFSI)

    Taf: TAF LFSI 202000Z 2021/2121 30008KT 8000 BKN015 TEMPO 2101/2106 2000 BR BKN010 BECMG 2109/2111 SCT020 TEMPO 2112/2115 BKN030TCU=

    Metar: nil

  • Maastricht/Zuid Limburg (EHBK)

    Taf: TAF EHBK 202321Z 2100/2206 29008KT 4500 BR OVC006 BECMG 2101/2103 2000 OVC003 PROB40 2102/2107 1200 OVC001 BECMG 2108/2111 6000 NSW BKN007 PROB40 2112/2123 8000 BKN016 PROB30 2200/2206 3000 BR BKN004=

    Metar: nil

  • Köln/Köln-Bonn (EDDK)

    Taf: TAF COR EDDK 202349Z 2100/2206 31012KT 4000 BR OVC008 TEMPO 2100/2109 2000 BR BKN004 BECMG 2109/2112 7000 BECMG 2111/2113 BKN012 TEMPO 2111/2118 30015G25KT BKN015 BECMG 2122/2201 30007KT PROB30 TEMPO 2200/2206 4000 BR BKN008=

    Metar: METAR EDDK 210150Z 30015KT 6000 -DZ OVC004 12/11 Q1008 BECMG 4000 BR=

  • Charleroi (EBCI)

    Taf: TAF EBCI 202300Z 2100/2206 31008KT 4500 BR BKN007 TEMPO 2100/2108 3000 -DZ BKN004 PROB40 TEMPO 2100/2106 0800 FG BKN001 BECMG 2107/2109 8000 NSW FEW015 SCT030=

    Metar: nil

  • Wiesbaden (ETOU)

    Taf: TAF AMD ETOU 210216Z 2102/2201 29010G20KT 9999 OVC015 QNH2968INS BECMG 2106/2107 31015G30KT 9000 -SHRA BKN020 630709 QNH2972INS BECMG 2112/2113 32012G25KT 9999 NSW OVC015 620609 QNH2981INS BECMG 2116/2117 31010G25KT 9999 OVC020 620709 QNH2988INS TX17/2117Z TN12/2104Z=

    Metar: nil

  • Karlsruhe/Baden-Baden (EDSB)

    Taf: TAF AMD EDSB 202316Z 2023/2118 CNL=

    Metar: nil

  • Chalons/Vatry (LFOK)

    Taf: TAF LFOK 202300Z 2100/2124 33008KT 9999 BKN030 TEMPO 2103/2106 3000 BR TEMPO 2114/2118 3000 SHRA BKN030CB=

    Metar: nil

  • Brüssel (EBBR)

    Taf: TAF EBBR 202300Z 2100/2206 31010KT 4500 BR BKN009 TEMPO 2100/2109 3000 BKN005 PROB40 TEMPO 2100/2108 2000 -DZ BKN002 BECMG 2108/2110 FEW015 SCT030=

    Metar: METAR EBBR 210150Z 31010KT 5000 BR BKN005 10/09 Q1013 NOSIG=

  • Düsseldorf (EDDL)

    Taf: TAF EDDL 202300Z 2100/2206 30012KT 4000 BR BKN008 TEMPO 2101/2109 2000 BR BKN003 BECMG 2110/2113 6000 BKN010 TEMPO 2111/2118 30015G25KT BECMG 2116/2118 BKN015 BECMG 2119/2122 29007KT BECMG 2123/2202 BKN012 PROB30 TEMPO 2200/2206 4000 BR BKN008=

    Metar: nil

  • Luxeuil (LFSX)

    Taf: TAF LFSX 202000Z NIL=

    Metar: nil

  • Eindhoven (EHEH)

    Taf: TAF EHEH 201747Z 2018/2124 30007KT 9999 BKN010 BECMG 2018/2020 4000 BR BKN008 BECMG 2022/2101 2500 BR BKN004 OVC007 PROB30 TEMPO 2100/2106 1500 BR -DZ SCT002 BKN003 BECMG 2107/2110 6000 NSW BKN008 BECMG 2110/2113 BKN012 OVC015 BECMG 2113/2115 SCT015 BKN020 BECMG 2117/2120 BKN010=

    Metar: nil

  • Niederrhein (EDLV)

    Taf: TAF EDLV 202300Z NIL=

    Metar: nil

  • Dortmund/Wickede (EDLW)

    Taf: TAF EDLW 202300Z NIL=

    Metar: nil

  • Stuttgart/Echterdingen (EDDS)

    Taf: TAF EDDS 202300Z 2100/2124 28010KT 7000 SCT015 BKN025 TEMPO 2100/2120 30015G25KT 2500 RA BKN008=

    Metar: METAR EDDS 210150Z 26012KT 9000 -RA SCT010 BKN016 12/10 Q1007=

  • Basel-Mühlhausen (LFSB)

    Taf: TAF LFSB 202300Z 2100/2124 26012KT 9999 SCT015 BKN040 TEMPO 2109/2112 26015G25KT FEW025TCU TEMPO 2112/2118 28015G25KT 4000 SHRA SCT020TCU FEW025CB TEMPO 2118/2120 SHRA SCT030TCU BECMG 2120/2122 VRB03KT=

    Metar: METAR LFSB 210200Z AUTO 25013KT 9999 FEW034 BKN040 OVC110 12/09 Q1011 NOSIG=

  • Lille (LFQQ)

    Taf: TAF LFQQ 202300Z 2100/2206 34008KT 9999 SCT030 BECMG 2100/2104 3000 BR PROB40 TEMPO 2102/2106 0500 FG VV/// BECMG 2106/2109 9999 NSW=

    Metar: nil

  • Paris/Charles de Gaulle (LFPG)

    Taf: TAF LFPG 202300Z 2100/2206 33005KT 8000 NSC TX20/2113Z TN08/2204Z PROB40 2104/2106 3500 BR PROB30 TEMPO 2104/2105 1200 BCFG BKN003 TEMPO 2109/2118 4000 SHRA SCT030TCU PROB30 TEMPO 2112/2116 30015G25KT 2500 TSRA SCT020CB BKN025 PROB30 2204/2206 4500 BR=

    Metar: nil

  • Paderborn/Lippstadt (EDLP)

    Taf: TAF AMD EDLP 210131Z 2101/2124 28008KT 2500 -RA BR OVC004 PROB30 TEMPO 2101/2106 TSRA BKN001CB TEMPO 2101/2108 RA PROB40 TEMPO 2102/2111 0800 FG BECMG 2112/2115 4000 TEMPO 2117/2124 6000 BKN012=

    Metar: nil

  • Paris/Le Bourget (LFPB)

    Taf: TAF LFPB 202300Z 2100/2124 33005KT 8000 NSC PROB40 2104/2106 3500 BR PROB30 TEMPO 2104/2105 1200 BCFG BKN003 TEMPO 2109/2118 4000 SHRA SCT030TCU PROB30 TEMPO 2112/2116 30015G25KT 2500 TSRA SCT020CB BKN025=

    Metar: METAR LFPB 210200Z NIL=

  • Rotterdam (EHRD)

    Taf: TAF EHRD 202307Z 2100/2206 32011KT 3500 BR BKN003 TEMPO 2100/2107 2000 BKN001 BECMG 2107/2110 7000 NSW BKN007 BECMG 2119/2122 29007KT 9999 BKN012 PROB30 2121/2206 4000 BR BKN005=

    Metar: nil

  • Zürich/Kloten (LSZH)

    Taf: TAF LSZH 202325Z 2100/2206 26008KT 9999 -RA FEW010 SCT012 BKN015 TX16/2115Z TN11/2104Z TN09/2205Z TEMPO 2100/2102 SHRA BKN012 PROB40 TEMPO 2110/2118 SHRA FEW030TCU=

    Metar: METAR LSZH 210150Z 26007KT 7000 -RA FEW008 BKN015 BKN060 11/09 Q1011 NOSIG=

  • Oostende/Intl (EBOS)

    Taf: TAF EBOS 202300Z 2100/2206 33012KT 8000 SCT015 PROB40 TEMPO 2100/2111 BKN008 PROB30 TEMPO 2102/2108 4500 BR BKN005=

    Metar: nil

  • Paris/Orly (LFPO)

    Taf: TAF LFPO 202300Z 2100/2206 33008KT CAVOK PROB30 TEMPO 2103/2106 3000 BR PROB30 TEMPO 2110/2112 SCT030TCU PROB40 TEMPO 2112/2117 4000 -SHRA SCT030CB=

    Metar: nil

  • Beauvais (LFOB)

    Taf: TAF LFOB 202300Z 2100/2124 33008KT 6000 SCT030 BECMG 2100/2104 3000 BR PROB40 2104/2106 0500 FG VV/// BECMG 2106/2108 9999 NSW BKN007 BECMG 2108/2110 SCT030 PROB40 TEMPO 2110/2114 3000 SHRA BKN020TCU=

    Metar: nil

  • Münster/Intl (EDDG)

    Taf: TAF EDDG 202300Z 2100/2124 31010KT 6000 OVC007 BECMG 2100/2103 4000 BR TEMPO 2100/2107 2000 -RA BR OVC004 BECMG 2109/2112 6000 TEMPO 2110/2118 30015G25KT BECMG 2111/2114 BKN012 BECMG 2116/2119 BKN020=

    Metar: METAR EDDG 210150Z 31011KT 260V340 8000 OVC006 13/12 Q1007 TEMPO OVC004=

  • Illesheim (ETIK)

    Taf: TAF AMD ETIK 202325Z 2023/2204 29012KT 8000 -SHRA OVC006 620706 QNH2959INS BECMG 2101/2102 31012G18KT 8000 -SHRA OVC006 620706 QNH2959INS BECMG 2106/2107 29012G18KT 8000 -SHRA OVC010 620706 QNH2968INS BECMG 2114/2115 29012KT 9999 NSW OVC015 620703 QNH2976INS TX14/2122Z TN11/2111Z=

    Metar: nil

  • Duebendorf (LSMD)

    Taf: TAF LSMD 201625Z 2017/2123 26008KT 9999 -SHRA SCT010 BKN014 TEMPO 2017/2102 4000 SHRA BKN009 PROB30 TEMPO 2112/2118 SHRA FEW030TCU=

    Metar: nil

  • Villacoublay (LFPV)

    Taf: TAF LFPV 210200Z 2103/2203 33005KT 8000 NSC TEMPO 2112/2118 4000 SHRA BKN030TCU=

    Metar: nil

  • Payerne (LSMP)

    Taf: TAF LSMP 201625Z 2017/2123 22007KT 9999 -SHRA FEW035 BKN050 BECMG 2110/2112 CAVOK=

    Metar: nil

  • Amsterdam/Schipol (EHAM)

    Taf: TAF EHAM 202307Z 2100/2206 32012KT 3500 BR BKN003 TEMPO 2100/2107 2000 BKN002 BECMG 2107/2110 7000 NSW BKN007 BECMG 2119/2122 29007KT 9999 BKN012 PROB30 2121/2206 4000 BR BKN005=

    Metar: METAR EHAM 210155Z 32011KT 290V350 3000 BR OVC002 11/11 Q1011 NOSIG=

  • Emmen (LSME)

    Taf: TAF LSME 201625Z 2017/2123 23006KT 8000 -SHRA FEW015 SCT030 OVC040 TEMPO 2017/2105 4000 SHRA BKN009 PROB30 TEMPO 2112/2121 SHRA FEW030TCU=

    Metar: nil

  • Friedrichshafen (EDNY)

    Taf: TAF EDNY 202300Z 2100/2124 25010KT 9999 SCT006 OVC015 TEMPO 2100/2124 4500 RA BKN006 TEMPO 2103/2114 25015G25KT BECMG 2118/2120 24005KT=

    Metar: nil

  • Alpnach (LSMA)

    Taf: TAF LSMA 201625Z 2017/2123 20008KT 9999 -SHRA FEW025 BKN050 OVC060 TEMPO 2017/2105 4000 SHRA PROB30 TEMPO 2112/2121 SHRA FEW030TCU=

    Metar: nil

  • Meiringen (LSMM)

    Taf: TAF LSMM 201625Z 2017/2123 VRB03KT 9000 -SHRA FEW015 BKN025 OVC050 TEMPO 2017/2105 4000 SHRA PROB40 TEMPO 2112/2122 SHRA FEW030TCU=

    Metar: nil

  • Nürnberg (EDDN)

    Taf: TAF EDDN 202300Z 2100/2124 29010KT 9999 SCT006 OVC015 TEMPO 2100/2124 4500 RA BKN006 PROB30 TEMPO 2102/2108 BKN004 TEMPO 2106/2116 30015G25KT=

    Metar: METAR EDDN 210150Z 28009KT 4500 -RA BR BKN005 BKN008 13/13 Q1002=

  • Rouen (LFOP)

    Taf: TAF LFOP 202300Z NIL=

    Metar: nil

  • Evreux (LFOE)

    Taf: TAF LFOE 210200Z 2103/2203 33005KT 2500 BR NSC BECMG 2103/2104 0800 FG OVC004 TEMPO 2104/2106 0500 FG VV/// BECMG 2106/2107 2000 BR BKN004 BECMG 2108/2110 6000 NSW SCT015 BECMG 2110/2112 SCT030TCU TEMPO 2113/2116 4000 SHRA BKN030CB BECMG 2116/2118 CAVOK=

    Metar: nil

  • Erfurt/Bindersleben (EDDE)

    Taf: TAF EDDE 202300Z 2100/2124 33007KT 9999 SCT025 BECMG 2100/2103 2500 BCFG BKN007 PROB30 TEMPO 2103/2107 0600 FG OVC001 BECMG 2107/2110 9999 BKN012 BECMG 2110/2112 33012KT BKN015 TEMPO 2112/2118 SHRA BKN020CB=

    Metar: nil